OPST

Details ICAO OPST (SKT)
Name Sialkot International Airport
Region Pakistan
Timezone Asia/Karachi (UTC+5.0)
Plans Departing 23
Arriving 26
Stats Elevation 837 ft / 255 m (AMSL)
Location 32.535501° 74.363177°
Runways 1
Magnetic Variation 2.274° E
Sunrise 2018-05-25 23:59:42 UTC / 2018-05-26 04:59:42 Local
Sunset 2018-05-26 14:02:19 UTC / 2018-05-26 19:02:19 Local
Advertisement - Login to hide

Runways

ID Width Length Bearing (true) Bearing (mag) Surface Threshold Offset Overrun Length
04 148 ft / 45 m 11,822 ft / 3,603 m 42.98° 40.71° Asphalt 0 ft / 0 m 1,027 ft / 313 m
22 148 ft / 45 m 11,822 ft / 3,603 m 222.99° 220.72° Asphalt 0 ft / 0 m 1,033 ft / 315 m

Map

Weather


0- 5 10 15 20 25 30 35+ Temperature / ° C

Clouds and Precipitation
Forecast for 2018-05-26 06:00 UTC. Updated 3 hours ago

Ground ~20,000 ft ~40,000 ft Winds

METAR

OPST 260800Z 23004KT 4000 HZ FEW100 42/04 Q1001 NOSIG RH10

TAF

Not found
Warning: Do not use this data for real-world aviation or navigation. No guarantee of current accuracy is given.